sensor_id;sensor_type;location;lat;lon;timestamp;temperature;humidity
10846;DHT22;5476;51.540;7.186;2022-08-01T00:01:25;20.70;99.90
10846;DHT22;5476;51.540;7.186;2022-08-01T00:03:52;20.80;99.90
10846;DHT22;5476;51.540;7.186;2022-08-01T00:06:19;20.80;99.90
10846;DHT22;5476;51.540;7.186;2022-08-01T00:08:46;20.80;99.90
10846;DHT22;5476;51.540;7.186;2022-08-01T00:11:13;20.80;99.90
10846;DHT22;5476;51.540;7.186;2022-08-01T00:13:41;20.80;99.90
10846;DHT22;5476;51.540;7.186;2022-08-01T00:16:08;20.80;99.90
10846;DHT22;5476;51.540;7.186;2022-08-01T00:18:35;20.70;99.90
10846;DHT22;5476;51.540;7.186;2022-08-01T00:21:02;20.70;99.90
10846;DHT22;5476;51.540;7.186;2022-08-01T00:23:30;20.80;99.90
10846;DHT22;5476;51.540;7.186;2022-08-01T00:25:57;20.80;99.90
10846;DHT22;5476;51.540;7.186;2022-08-01T00:28:24;20.80;99.90
10846;DHT22;5476;51.540;7.186;2022-08-01T00:30:52;20.70;99.90
10846;DHT22;5476;51.540;7.186;2022-08-01T00:33:19;20.70;99.90
10846;DHT22;5476;51.540;7.186;2022-08-01T00:35:46;20.70;99.90
10846;DHT22;5476;51.540;7.186;2022-08-01T00:38:13;20.70;99.90
10846;DHT22;5476;51.540;7.186;2022-08-01T00:40:40;20.70;99.90
10846;DHT22;5476;51.540;7.186;2022-08-01T00:43:07;20.70;99.90
10846;DHT22;5476;51.540;7.186;2022-08-01T00:45:33;20.70;99.90
10846;DHT22;5476;51.540;7.186;2022-08-01T00:48:02;20.60;99.90
10846;DHT22;5476;51.540;7.186;2022-08-01T00:50:29;20.50;99.90
10846;DHT22;5476;51.540;7.186;2022-08-01T00:52:57;20.50;99.90
10846;DHT22;5476;51.540;7.186;2022-08-01T00:55:24;20.50;99.90
10846;DHT22;5476;51.540;7.186;2022-08-01T00:57:52;20.60;99.90
10846;DHT22;5476;51.540;7.186;2022-08-01T01:00:19;20.60;99.90
10846;DHT22;5476;51.540;7.186;2022-08-01T01:02:46;20.60;99.90
10846;DHT22;5476;51.540;7.186;2022-08-01T01:05:14;20.60;99.90
10846;DHT22;5476;51.540;7.186;2022-08-01T01:07:46;20.60;99.90
10846;DHT22;5476;51.540;7.186;2022-08-01T01:10:17;20.60;99.90
10846;DHT22;5476;51.540;7.186;2022-08-01T01:12:50;20.60;99.90
10846;DHT22;5476;51.540;7.186;2022-08-01T01:15:23;20.60;99.90
10846;DHT22;5476;51.540;7.186;2022-08-01T01:17:55;20.60;99.90
10846;DHT22;5476;51.540;7.186;2022-08-01T01:20:27;20.50;99.90
10846;DHT22;5476;51.540;7.186;2022-08-01T01:23:10;20.60;99.90
10846;DHT22;5476;51.540;7.186;2022-08-01T01:29:03;20.60;99.90
10846;DHT22;5476;51.540;7.186;2022-08-01T01:31:44;20.60;99.90
10846;DHT22;5476;51.540;7.186;2022-08-01T01:34:15;20.50;99.90
10846;DHT22;5476;51.540;7.186;2022-08-01T01:36:44;20.50;99.90
10846;DHT22;5476;51.540;7.186;2022-08-01T01:39:13;20.50;99.90
10846;DHT22;5476;51.540;7.186;2022-08-01T01:41:41;20.50;99.90
10846;DHT22;5476;51.540;7.186;2022-08-01T01:44:11;20.40;99.90
10846;DHT22;5476;51.540;7.186;2022-08-01T01:46:39;20.50;99.90
10846;DHT22;5476;51.540;7.186;2022-08-01T01:49:08;20.50;99.90
10846;DHT22;5476;51.540;7.186;2022-08-01T01:51:37;20.50;99.90
10846;DHT22;5476;51.540;7.186;2022-08-01T01:54:05;20.60;99.90
10846;DHT22;5476;51.540;7.186;2022-08-01T01:56:33;20.50;99.90
10846;DHT22;5476;51.540;7.186;2022-08-01T01:59:16;20.60;99.90
10846;DHT22;5476;51.540;7.186;2022-08-01T02:01:46;20.60;99.90
10846;DHT22;5476;51.540;7.186;2022-08-01T02:04:14;20.60;99.90
10846;DHT22;5476;51.540;7.186;2022-08-01T02:06:42;20.60;99.90
10846;DHT22;5476;51.540;7.186;2022-08-01T02:09:10;20.60;99.90
10846;DHT22;5476;51.540;7.186;2022-08-01T02:11:39;20.50;99.90
10846;DHT22;5476;51.540;7.186;2022-08-01T02:14:07;20.50;99.90
10846;DHT22;5476;51.540;7.186;2022-08-01T02:16:40;20.60;99.90
10846;DHT22;5476;51.540;7.186;2022-08-01T02:19:08;20.60;99.90
10846;DHT22;5476;51.540;7.186;2022-08-01T02:21:39;20.60;99.90
10846;DHT22;5476;51.540;7.186;2022-08-01T02:24:13;20.60;99.90
10846;DHT22;5476;51.540;7.186;2022-08-01T02:26:45;20.60;99.90
10846;DHT22;5476;51.540;7.186;2022-08-01T02:29:17;20.70;99.90
10846;DHT22;5476;51.540;7.186;2022-08-01T02:31:47;20.70;99.90
10846;DHT22;5476;51.540;7.186;2022-08-01T02:34:17;20.70;99.90
10846;DHT22;5476;51.540;7.186;2022-08-01T02:36:46;20.70;99.90
10846;DHT22;5476;51.540;7.186;2022-08-01T02:39:17;20.70;99.90
10846;DHT22;5476;51.540;7.186;2022-08-01T02:41:47;20.70;99.90
10846;DHT22;5476;51.540;7.186;2022-08-01T02:44:21;20.70;99.90
10846;DHT22;5476;51.540;7.186;2022-08-01T02:46:54;20.70;99.90
10846;DHT22;5476;51.540;7.186;2022-08-01T02:49:24;20.70;99.90
10846;DHT22;5476;51.540;7.186;2022-08-01T02:51:53;20.70;99.90
10846;DHT22;5476;51.540;7.186;2022-08-01T02:54:22;20.70;99.90
10846;DHT22;5476;51.540;7.186;2022-08-01T02:56:50;20.60;99.90
10846;DHT22;5476;51.540;7.186;2022-08-01T02:59:21;20.60;99.90
10846;DHT22;5476;51.540;7.186;2022-08-01T03:01:53;20.60;99.90
10846;DHT22;5476;51.540;7.186;2022-08-01T03:04:22;20.50;99.90
10846;DHT22;5476;51.540;7.186;2022-08-01T03:06:51;20.40;99.90
10846;DHT22;5476;51.540;7.186;2022-08-01T03:09:19;20.50;99.90
10846;DHT22;5476;51.540;7.186;2022-08-01T03:11:48;20.40;99.90
10846;DHT22;5476;51.540;7.186;2022-08-01T03:14:17;20.30;99.90
10846;DHT22;5476;51.540;7.186;2022-08-01T03:16:45;20.30;99.90
10846;DHT22;5476;51.540;7.186;2022-08-01T03:19:17;20.30;99.90
10846;DHT22;5476;51.540;7.186;2022-08-01T03:21:45;20.30;99.90
10846;DHT22;5476;51.540;7.186;2022-08-01T03:24:14;20.30;99.90
10846;DHT22;5476;51.540;7.186;2022-08-01T03:26:43;20.30;99.90
10846;DHT22;5476;51.540;7.186;2022-08-01T03:29:15;20.40;99.90
10846;DHT22;5476;51.540;7.186;2022-08-01T03:31:45;20.40;99.90
10846;DHT22;5476;51.540;7.186;2022-08-01T03:34:12;20.30;99.90
10846;DHT22;5476;51.540;7.186;2022-08-01T03:36:45;20.30;99.90
10846;DHT22;5476;51.540;7.186;2022-08-01T03:39:14;20.40;99.90
10846;DHT22;5476;51.540;7.186;2022-08-01T03:41:48;20.40;99.90
10846;DHT22;5476;51.540;7.186;2022-08-01T03:44:23;20.40;99.90
10846;DHT22;5476;51.540;7.186;2022-08-01T03:46:56;20.50;99.90
10846;DHT22;5476;51.540;7.186;2022-08-01T03:49:29;20.50;99.90
10846;DHT22;5476;51.540;7.186;2022-08-01T03:51:58;20.40;99.90
10846;DHT22;5476;51.540;7.186;2022-08-01T03:54:31;20.40;99.90
10846;DHT22;5476;51.540;7.186;2022-08-01T03:57:00;20.40;99.90
10846;DHT22;5476;51.540;7.186;2022-08-01T03:59:28;20.50;99.90
10846;DHT22;5476;51.540;7.186;2022-08-01T04:01:55;20.50;99.90
10846;DHT22;5476;51.540;7.186;2022-08-01T04:04:23;20.50;99.90
10846;DHT22;5476;51.540;7.186;2022-08-01T04:06:50;20.50;99.90
10846;DHT22;5476;51.540;7.186;2022-08-01T04:09:21;20.40;99.90
10846;DHT22;5476;51.540;7.186;2022-08-01T04:11:48;20.40;99.90
10846;DHT22;5476;51.540;7.186;2022-08-01T04:14:15;20.40;99.90
10846;DHT22;5476;51.540;7.186;2022-08-01T04:16:42;20.40;99.90
10846;DHT22;5476;51.540;7.186;2022-08-01T04:19:09;20.40;99.90
10846;DHT22;5476;51.540;7.186;2022-08-01T04:21:37;20.40;99.90
10846;DHT22;5476;51.540;7.186;2022-08-01T04:24:09;20.50;99.90
10846;DHT22;5476;51.540;7.186;2022-08-01T04:26:39;20.50;99.90
10846;DHT22;5476;51.540;7.186;2022-08-01T04:29:08;20.60;99.90
10846;DHT22;5476;51.540;7.186;2022-08-01T04:31:36;20.50;99.90
10846;DHT22;5476;51.540;7.186;2022-08-01T04:34:06;20.50;99.90
10846;DHT22;5476;51.540;7.186;2022-08-01T04:36:35;20.50;99.90
10846;DHT22;5476;51.540;7.186;2022-08-01T04:39:04;20.50;99.90
10846;DHT22;5476;51.540;7.186;2022-08-01T04:41:32;20.60;99.90
10846;DHT22;5476;51.540;7.186;2022-08-01T04:44:03;20.60;99.90
10846;DHT22;5476;51.540;7.186;2022-08-01T04:46:30;20.60;99.90
10846;DHT22;5476;51.540;7.186;2022-08-01T04:48:58;20.60;99.90
10846;DHT22;5476;51.540;7.186;2022-08-01T04:51:26;20.60;99.90
10846;DHT22;5476;51.540;7.186;2022-08-01T04:53:53;20.60;99.90
10846;DHT22;5476;51.540;7.186;2022-08-01T04:56:20;20.60;99.90
10846;DHT22;5476;51.540;7.186;2022-08-01T04:58:47;20.60;99.90
10846;DHT22;5476;51.540;7.186;2022-08-01T05:01:35;20.60;99.90
10846;DHT22;5476;51.540;7.186;2022-08-01T05:04:02;20.60;99.90
10846;DHT22;5476;51.540;7.186;2022-08-01T05:06:30;20.60;99.90
10846;DHT22;5476;51.540;7.186;2022-08-01T05:08:56;20.60;99.90
10846;DHT22;5476;51.540;7.186;2022-08-01T05:11:23;20.60;99.90
10846;DHT22;5476;51.540;7.186;2022-08-01T05:13:50;20.70;99.90
10846;DHT22;5476;51.540;7.186;2022-08-01T05:16:18;20.70;99.90
10846;DHT22;5476;51.540;7.186;2022-08-01T05:18:46;20.70;99.90
10846;DHT22;5476;51.540;7.186;2022-08-01T05:21:13;20.60;99.90
10846;DHT22;5476;51.540;7.186;2022-08-01T05:23:39;20.60;99.90
10846;DHT22;5476;51.540;7.186;2022-08-01T05:26:08;20.50;99.90
10846;DHT22;5476;51.540;7.186;2022-08-01T05:28:35;20.50;99.90
10846;DHT22;5476;51.540;7.186;2022-08-01T05:31:02;20.40;99.90
10846;DHT22;5476;51.540;7.186;2022-08-01T05:33:29;20.40;99.90
10846;DHT22;5476;51.540;7.186;2022-08-01T05:35:57;20.40;99.90
10846;DHT22;5476;51.540;7.186;2022-08-01T05:38:24;20.40;99.90
10846;DHT22;5476;51.540;7.186;2022-08-01T05:40:51;20.40;99.90
10846;DHT22;5476;51.540;7.186;2022-08-01T05:43:18;20.50;99.90
10846;DHT22;5476;51.540;7.186;2022-08-01T05:45:46;20.50;99.90
10846;DHT22;5476;51.540;7.186;2022-08-01T05:48:13;20.50;99.90
10846;DHT22;5476;51.540;7.186;2022-08-01T05:50:40;20.50;99.90
10846;DHT22;5476;51.540;7.186;2022-08-01T05:53:08;20.50;99.90
10846;DHT22;5476;51.540;7.186;2022-08-01T05:55:35;20.50;99.90
10846;DHT22;5476;51.540;7.186;2022-08-01T05:58:03;20.50;99.90
10846;DHT22;5476;51.540;7.186;2022-08-01T06:00:30;20.50;99.90
10846;DHT22;5476;51.540;7.186;2022-08-01T06:02:57;20.60;99.90
10846;DHT22;5476;51.540;7.186;2022-08-01T06:05:24;20.60;99.90
10846;DHT22;5476;51.540;7.186;2022-08-01T06:07:51;20.60;99.90
10846;DHT22;5476;51.540;7.186;2022-08-01T06:10:19;20.60;99.90
10846;DHT22;5476;51.540;7.186;2022-08-01T06:12:46;20.50;99.90
10846;DHT22;5476;51.540;7.186;2022-08-01T06:15:15;20.50;99.90
10846;DHT22;5476;51.540;7.186;2022-08-01T06:17:44;20.50;99.90
10846;DHT22;5476;51.540;7.186;2022-08-01T06:20:11;20.50;99.90
10846;DHT22;5476;51.540;7.186;2022-08-01T06:22:38;20.60;99.90
10846;DHT22;5476;51.540;7.186;2022-08-01T06:25:07;20.70;99.90
10846;DHT22;5476;51.540;7.186;2022-08-01T06:27:35;20.70;99.90
10846;DHT22;5476;51.540;7.186;2022-08-01T06:30:03;20.80;99.90
10846;DHT22;5476;51.540;7.186;2022-08-01T06:32:30;20.90;99.90
10846;DHT22;5476;51.540;7.186;2022-08-01T06:34:57;20.80;99.90
10846;DHT22;5476;51.540;7.186;2022-08-01T06:37:27;20.80;99.90
10846;DHT22;5476;51.540;7.186;2022-08-01T06:39:54;20.90;99.90
10846;DHT22;5476;51.540;7.186;2022-08-01T06:42:21;21.00;99.90
10846;DHT22;5476;51.540;7.186;2022-08-01T06:44:51;21.00;99.90
10846;DHT22;5476;51.540;7.186;2022-08-01T06:47:17;21.10;99.90
10846;DHT22;5476;51.540;7.186;2022-08-01T06:49:44;21.00;99.90
10846;DHT22;5476;51.540;7.186;2022-08-01T06:52:11;21.00;99.90
10846;DHT22;5476;51.540;7.186;2022-08-01T06:54:38;21.00;99.90
10846;DHT22;5476;51.540;7.186;2022-08-01T06:57:06;21.00;99.90
10846;DHT22;5476;51.540;7.186;2022-08-01T06:59:33;21.00;99.90
10846;DHT22;5476;51.540;7.186;2022-08-01T07:02:01;21.10;99.90
10846;DHT22;5476;51.540;7.186;2022-08-01T07:04:28;21.20;99.90
10846;DHT22;5476;51.540;7.186;2022-08-01T07:06:56;21.30;99.90
10846;DHT22;5476;51.540;7.186;2022-08-01T07:09:23;21.30;99.90
10846;DHT22;5476;51.540;7.186;2022-08-01T07:11:50;21.40;99.90
10846;DHT22;5476;51.540;7.186;2022-08-01T07:14:18;21.50;99.90
10846;DHT22;5476;51.540;7.186;2022-08-01T07:16:45;21.50;99.90
10846;DHT22;5476;51.540;7.186;2022-08-01T07:19:13;21.60;99.90
10846;DHT22;5476;51.540;7.186;2022-08-01T07:21:40;21.60;99.90
10846;DHT22;5476;51.540;7.186;2022-08-01T07:24:09;21.70;99.90
10846;DHT22;5476;51.540;7.186;2022-08-01T07:26:36;21.70;99.90
10846;DHT22;5476;51.540;7.186;2022-08-01T07:29:03;21.70;99.90
10846;DHT22;5476;51.540;7.186;2022-08-01T07:31:30;21.80;99.90
10846;DHT22;5476;51.540;7.186;2022-08-01T07:33:57;21.80;99.90
10846;DHT22;5476;51.540;7.186;2022-08-01T07:36:26;21.80;99.90
10846;DHT22;5476;51.540;7.186;2022-08-01T07:38:53;21.70;99.90
10846;DHT22;5476;51.540;7.186;2022-08-01T07:41:20;21.80;99.90
10846;DHT22;5476;51.540;7.186;2022-08-01T07:43:47;21.90;99.90
10846;DHT22;5476;51.540;7.186;2022-08-01T07:46:15;21.80;99.90
10846;DHT22;5476;51.540;7.186;2022-08-01T07:48:42;21.80;99.90
10846;DHT22;5476;51.540;7.186;2022-08-01T07:51:09;21.90;99.90
10846;DHT22;5476;51.540;7.186;2022-08-01T07:53:39;22.00;99.90
10846;DHT22;5476;51.540;7.186;2022-08-01T07:56:06;22.10;99.90
10846;DHT22;5476;51.540;7.186;2022-08-01T07:58:35;22.20;99.90
10846;DHT22;5476;51.540;7.186;2022-08-01T08:01:02;22.20;99.90
10846;DHT22;5476;51.540;7.186;2022-08-01T08:03:29;22.20;99.90
10846;DHT22;5476;51.540;7.186;2022-08-01T08:05:56;22.30;99.90
10846;DHT22;5476;51.540;7.186;2022-08-01T08:08:24;22.40;99.90
10846;DHT22;5476;51.540;7.186;2022-08-01T08:10:53;22.50;99.90
10846;DHT22;5476;51.540;7.186;2022-08-01T08:13:20;22.50;99.90
10846;DHT22;5476;51.540;7.186;2022-08-01T08:15:47;22.50;99.90
10846;DHT22;5476;51.540;7.186;2022-08-01T08:18:14;22.60;99.90
10846;DHT22;5476;51.540;7.186;2022-08-01T08:20:41;22.70;99.90
10846;DHT22;5476;51.540;7.186;2022-08-01T08:23:08;22.80;99.90
10846;DHT22;5476;51.540;7.186;2022-08-01T08:25:48;22.80;99.90
10846;DHT22;5476;51.540;7.186;2022-08-01T08:28:17;22.80;99.90
10846;DHT22;5476;51.540;7.186;2022-08-01T08:30:44;22.80;99.90
10846;DHT22;5476;51.540;7.186;2022-08-01T08:33:11;22.70;99.90
10846;DHT22;5476;51.540;7.186;2022-08-01T08:35:39;22.70;99.90
10846;DHT22;5476;51.540;7.186;2022-08-01T08:38:06;22.60;99.90
10846;DHT22;5476;51.540;7.186;2022-08-01T08:40:35;22.70;99.90
10846;DHT22;5476;51.540;7.186;2022-08-01T08:43:05;22.80;99.90
10846;DHT22;5476;51.540;7.186;2022-08-01T08:45:34;23.10;99.90
10846;DHT22;5476;51.540;7.186;2022-08-01T08:48:01;23.20;99.90
10846;DHT22;5476;51.540;7.186;2022-08-01T08:50:28;23.10;99.90
10846;DHT22;5476;51.540;7.186;2022-08-01T08:52:58;23.20;99.90
10846;DHT22;5476;51.540;7.186;2022-08-01T08:55:28;22.80;99.90
10846;DHT22;5476;51.540;7.186;2022-08-01T08:57:55;23.40;99.90
10846;DHT22;5476;51.540;7.186;2022-08-01T09:00:23;23.60;99.90
10846;DHT22;5476;51.540;7.186;2022-08-01T09:02:51;23.80;99.90
10846;DHT22;5476;51.540;7.186;2022-08-01T09:05:22;23.90;99.90
10846;DHT22;5476;51.540;7.186;2022-08-01T09:07:51;24.00;99.90
10846;DHT22;5476;51.540;7.186;2022-08-01T09:10:18;24.00;99.90
10846;DHT22;5476;51.540;7.186;2022-08-01T09:13:09;24.10;99.90
10846;DHT22;5476;51.540;7.186;2022-08-01T09:15:41;24.30;99.90
10846;DHT22;5476;51.540;7.186;2022-08-01T09:18:26;24.40;99.90
10846;DHT22;5476;51.540;7.186;2022-08-01T09:21:08;24.50;99.90
10846;DHT22;5476;51.540;7.186;2022-08-01T09:23:36;24.70;99.90
10846;DHT22;5476;51.540;7.186;2022-08-01T09:26:05;24.70;99.90
10846;DHT22;5476;51.540;7.186;2022-08-01T09:28:32;24.90;99.90
10846;DHT22;5476;51.540;7.186;2022-08-01T09:31:05;24.90;99.90
10846;DHT22;5476;51.540;7.186;2022-08-01T09:33:49;25.10;99.90
10846;DHT22;5476;51.540;7.186;2022-08-01T09:36:16;25.40;99.90
10846;DHT22;5476;51.540;7.186;2022-08-01T09:38:43;25.50;99.90
10846;DHT22;5476;51.540;7.186;2022-08-01T09:41:11;25.60;99.90
10846;DHT22;5476;51.540;7.186;2022-08-01T09:43:38;25.90;99.90
10846;DHT22;5476;51.540;7.186;2022-08-01T09:46:08;25.90;99.90
10846;DHT22;5476;51.540;7.186;2022-08-01T09:48:36;25.80;99.90
10846;DHT22;5476;51.540;7.186;2022-08-01T09:51:06;25.90;99.90
10846;DHT22;5476;51.540;7.186;2022-08-01T09:53:41;26.00;99.90
10846;DHT22;5476;51.540;7.186;2022-08-01T09:56:09;26.20;99.90
10846;DHT22;5476;51.540;7.186;2022-08-01T09:58:52;26.30;99.90
10846;DHT22;5476;51.540;7.186;2022-08-01T10:01:20;26.30;99.90
10846;DHT22;5476;51.540;7.186;2022-08-01T10:04:04;26.50;99.90
10846;DHT22;5476;51.540;7.186;2022-08-01T10:06:32;26.50;99.90
10846;DHT22;5476;51.540;7.186;2022-08-01T10:08:59;26.50;99.90
10846;DHT22;5476;51.540;7.186;2022-08-01T10:11:28;26.60;99.90
10846;DHT22;5476;51.540;7.186;2022-08-01T10:13:58;26.70;99.90
10846;DHT22;5476;51.540;7.186;2022-08-01T10:16:27;26.50;99.90
10846;DHT22;5476;51.540;7.186;2022-08-01T10:18:55;26.50;99.90
10846;DHT22;5476;51.540;7.186;2022-08-01T10:21:24;26.60;99.90
10846;DHT22;5476;51.540;7.186;2022-08-01T10:23:54;26.60;99.90
10846;DHT22;5476;51.540;7.186;2022-08-01T10:26:25;26.70;99.90
10846;DHT22;5476;51.540;7.186;2022-08-01T10:28:54;26.60;99.90
10846;DHT22;5476;51.540;7.186;2022-08-01T10:31:22;26.60;99.90
10846;DHT22;5476;51.540;7.186;2022-08-01T10:33:50;26.50;99.90
10846;DHT22;5476;51.540;7.186;2022-08-01T10:36:19;26.30;99.90
10846;DHT22;5476;51.540;7.186;2022-08-01T10:38:47;26.40;99.90
10846;DHT22;5476;51.540;7.186;2022-08-01T10:41:16;26.30;99.90
10846;DHT22;5476;51.540;7.186;2022-08-01T10:43:45;26.40;99.90
10846;DHT22;5476;51.540;7.186;2022-08-01T10:46:12;26.50;99.90
10846;DHT22;5476;51.540;7.186;2022-08-01T10:48:45;26.50;99.90
10846;DHT22;5476;51.540;7.186;2022-08-01T10:51:14;26.60;99.90
10846;DHT22;5476;51.540;7.186;2022-08-01T10:53:47;26.70;99.90
10846;DHT22;5476;51.540;7.186;2022-08-01T10:56:15;27.10;99.90
10846;DHT22;5476;51.540;7.186;2022-08-01T10:58:44;27.30;99.90
10846;DHT22;5476;51.540;7.186;2022-08-01T11:01:17;27.40;99.90
10846;DHT22;5476;51.540;7.186;2022-08-01T11:03:55;27.40;99.90
10846;DHT22;5476;51.540;7.186;2022-08-01T11:06:28;27.40;99.90
10846;DHT22;5476;51.540;7.186;2022-08-01T11:09:04;27.50;99.90
10846;DHT22;5476;51.540;7.186;2022-08-01T11:11:56;26.60;99.90
10846;DHT22;5476;51.540;7.186;2022-08-01T11:14:24;27.70;99.90
10846;DHT22;5476;51.540;7.186;2022-08-01T11:16:50;27.80;99.90
10846;DHT22;5476;51.540;7.186;2022-08-01T11:19:17;27.80;99.90
10846;DHT22;5476;51.540;7.186;2022-08-01T11:22:00;27.90;99.90
10846;DHT22;5476;51.540;7.186;2022-08-01T11:24:54;27.90;99.90
10846;DHT22;5476;51.540;7.186;2022-08-01T11:27:34;27.80;99.90
10846;DHT22;5476;51.540;7.186;2022-08-01T11:30:24;27.80;99.90
10846;DHT22;5476;51.540;7.186;2022-08-01T11:32:56;28.10;99.90
10846;DHT22;5476;51.540;7.186;2022-08-01T11:35:24;28.10;99.90
10846;DHT22;5476;51.540;7.186;2022-08-01T11:37:53;28.30;99.90
10846;DHT22;5476;51.540;7.186;2022-08-01T11:40:23;28.50;99.90
10846;DHT22;5476;51.540;7.186;2022-08-01T11:43:18;28.50;99.90
10846;DHT22;5476;51.540;7.186;2022-08-01T11:45:49;28.60;99.90
10846;DHT22;5476;51.540;7.186;2022-08-01T11:48:20;28.50;99.90
10846;DHT22;5476;51.540;7.186;2022-08-01T11:50:47;28.40;99.90
10846;DHT22;5476;51.540;7.186;2022-08-01T11:53:16;28.50;99.90
10846;DHT22;5476;51.540;7.186;2022-08-01T11:55:46;28.40;99.90
10846;DHT22;5476;51.540;7.186;2022-08-01T11:58:20;28.50;99.90
10846;DHT22;5476;51.540;7.186;2022-08-01T12:00:50;28.50;99.90
10846;DHT22;5476;51.540;7.186;2022-08-01T12:03:23;28.60;99.90
10846;DHT22;5476;51.540;7.186;2022-08-01T12:05:50;28.40;99.90
10846;DHT22;5476;51.540;7.186;2022-08-01T12:08:24;28.40;99.90
10846;DHT22;5476;51.540;7.186;2022-08-01T12:10:52;28.60;99.90
10846;DHT22;5476;51.540;7.186;2022-08-01T12:13:21;28.90;99.90
10846;DHT22;5476;51.540;7.186;2022-08-01T12:15:48;29.40;99.90
10846;DHT22;5476;51.540;7.186;2022-08-01T12:18:16;29.60;99.90
10846;DHT22;5476;51.540;7.186;2022-08-01T12:20:45;29.60;99.90
10846;DHT22;5476;51.540;7.186;2022-08-01T12:23:13;29.50;99.90
10846;DHT22;5476;51.540;7.186;2022-08-01T12:25:41;29.40;99.90
10846;DHT22;5476;51.540;7.186;2022-08-01T12:28:10;29.30;99.90
10846;DHT22;5476;51.540;7.186;2022-08-01T12:30:40;29.20;99.90
10846;DHT22;5476;51.540;7.186;2022-08-01T12:33:09;29.00;99.90
10846;DHT22;5476;51.540;7.186;2022-08-01T12:35:38;28.90;99.90
10846;DHT22;5476;51.540;7.186;2022-08-01T12:38:14;28.90;99.90
10846;DHT22;5476;51.540;7.186;2022-08-01T12:40:42;28.90;99.90
10846;DHT22;5476;51.540;7.186;2022-08-01T12:43:10;28.80;99.90
10846;DHT22;5476;51.540;7.186;2022-08-01T12:45:45;28.90;99.90
10846;DHT22;5476;51.540;7.186;2022-08-01T12:48:14;29.10;99.90
10846;DHT22;5476;51.540;7.186;2022-08-01T12:50:43;29.40;99.90
10846;DHT22;5476;51.540;7.186;2022-08-01T12:53:11;29.70;99.90
10846;DHT22;5476;51.540;7.186;2022-08-01T12:55:44;29.70;99.90
10846;DHT22;5476;51.540;7.186;2022-08-01T12:58:13;29.70;99.90
10846;DHT22;5476;51.540;7.186;2022-08-01T13:00:42;29.50;99.90
10846;DHT22;5476;51.540;7.186;2022-08-01T13:03:12;29.40;99.90
10846;DHT22;5476;51.540;7.186;2022-08-01T13:05:44;29.40;99.90
10846;DHT22;5476;51.540;7.186;2022-08-01T13:08:11;29.40;99.90
10846;DHT22;5476;51.540;7.186;2022-08-01T13:10:39;29.30;99.90
10846;DHT22;5476;51.540;7.186;2022-08-01T13:13:07;29.20;99.90
10846;DHT22;5476;51.540;7.186;2022-08-01T13:15:36;29.10;99.90
10846;DHT22;5476;51.540;7.186;2022-08-01T13:18:24;29.20;99.90
10846;DHT22;5476;51.540;7.186;2022-08-01T13:21:07;29.30;99.90
10846;DHT22;5476;51.540;7.186;2022-08-01T13:23:35;29.60;99.90
10846;DHT22;5476;51.540;7.186;2022-08-01T13:26:02;29.70;99.90
10846;DHT22;5476;51.540;7.186;2022-08-01T13:28:29;30.00;99.90
10846;DHT22;5476;51.540;7.186;2022-08-01T13:30:58;30.30;99.90
10846;DHT22;5476;51.540;7.186;2022-08-01T13:33:38;30.30;97.90
10846;DHT22;5476;51.540;7.186;2022-08-01T13:36:06;30.30;98.50
10846;DHT22;5476;51.540;7.186;2022-08-01T13:38:33;30.40;98.60
10846;DHT22;5476;51.540;7.186;2022-08-01T13:41:18;30.40;99.00
10846;DHT22;5476;51.540;7.186;2022-08-01T13:43:45;30.30;97.30
10846;DHT22;5476;51.540;7.186;2022-08-01T13:46:12;30.20;96.90
10846;DHT22;5476;51.540;7.186;2022-08-01T13:48:40;30.30;97.10
10846;DHT22;5476;51.540;7.186;2022-08-01T13:51:07;30.40;97.20
10846;DHT22;5476;51.540;7.186;2022-08-01T13:53:34;30.70;96.00
10846;DHT22;5476;51.540;7.186;2022-08-01T13:56:02;30.80;94.60
10846;DHT22;5476;51.540;7.186;2022-08-01T13:58:29;30.90;93.90
10846;DHT22;5476;51.540;7.186;2022-08-01T14:00:56;31.00;94.00
10846;DHT22;5476;51.540;7.186;2022-08-01T14:03:23;30.80;94.50
10846;DHT22;5476;51.540;7.186;2022-08-01T14:05:51;30.90;95.20
10846;DHT22;5476;51.540;7.186;2022-08-01T14:08:18;31.00;95.60
10846;DHT22;5476;51.540;7.186;2022-08-01T14:10:45;31.10;95.00
10846;DHT22;5476;51.540;7.186;2022-08-01T14:13:12;31.00;93.50
10846;DHT22;5476;51.540;7.186;2022-08-01T14:15:39;30.90;93.50
10846;DHT22;5476;51.540;7.186;2022-08-01T14:18:07;30.80;94.20
10846;DHT22;5476;51.540;7.186;2022-08-01T14:20:35;30.80;93.70
10846;DHT22;5476;51.540;7.186;2022-08-01T14:23:04;30.70;94.60
10846;DHT22;5476;51.540;7.186;2022-08-01T14:25:32;30.70;94.10
10846;DHT22;5476;51.540;7.186;2022-08-01T14:27:59;30.40;93.70
10846;DHT22;5476;51.540;7.186;2022-08-01T14:30:26;30.10;94.00
10846;DHT22;5476;51.540;7.186;2022-08-01T14:32:53;30.20;94.90
10846;DHT22;5476;51.540;7.186;2022-08-01T14:35:20;30.20;95.20
10846;DHT22;5476;51.540;7.186;2022-08-01T14:37:47;30.10;94.60
10846;DHT22;5476;51.540;7.186;2022-08-01T14:40:15;30.00;95.40
10846;DHT22;5476;51.540;7.186;2022-08-01T14:42:42;30.00;95.60
10846;DHT22;5476;51.540;7.186;2022-08-01T14:45:11;30.00;95.90
10846;DHT22;5476;51.540;7.186;2022-08-01T14:47:39;29.90;96.90
10846;DHT22;5476;51.540;7.186;2022-08-01T14:50:08;29.80;97.00
10846;DHT22;5476;51.540;7.186;2022-08-01T14:52:37;29.70;96.20
10846;DHT22;5476;51.540;7.186;2022-08-01T14:55:06;29.70;96.50
10846;DHT22;5476;51.540;7.186;2022-08-01T14:57:35;29.70;97.80
10846;DHT22;5476;51.540;7.186;2022-08-01T15:00:04;29.70;96.40
10846;DHT22;5476;51.540;7.186;2022-08-01T15:02:31;29.70;96.30
10846;DHT22;5476;51.540;7.186;2022-08-01T15:04:58;29.60;96.50
10846;DHT22;5476;51.540;7.186;2022-08-01T15:07:25;29.60;95.80
10846;DHT22;5476;51.540;7.186;2022-08-01T15:09:52;29.50;96.30
10846;DHT22;5476;51.540;7.186;2022-08-01T15:12:20;29.50;96.70
10846;DHT22;5476;51.540;7.186;2022-08-01T15:14:48;29.50;97.20
10846;DHT22;5476;51.540;7.186;2022-08-01T15:17:17;29.50;98.00
10846;DHT22;5476;51.540;7.186;2022-08-01T15:19:45;29.50;97.60
10846;DHT22;5476;51.540;7.186;2022-08-01T15:22:13;29.60;97.00
10846;DHT22;5476;51.540;7.186;2022-08-01T15:24:41;29.60;96.40
10846;DHT22;5476;51.540;7.186;2022-08-01T15:27:09;29.60;96.90
10846;DHT22;5476;51.540;7.186;2022-08-01T15:29:36;29.70;97.30
10846;DHT22;5476;51.540;7.186;2022-08-01T15:32:06;29.70;96.70
10846;DHT22;5476;51.540;7.186;2022-08-01T15:34:33;29.80;96.20
10846;DHT22;5476;51.540;7.186;2022-08-01T15:37:02;30.50;96.20
10846;DHT22;5476;51.540;7.186;2022-08-01T15:39:29;29.90;95.70
10846;DHT22;5476;51.540;7.186;2022-08-01T15:41:59;30.00;94.40
10846;DHT22;5476;51.540;7.186;2022-08-01T15:44:26;29.90;95.40
10846;DHT22;5476;51.540;7.186;2022-08-01T15:46:53;29.80;94.90
10846;DHT22;5476;51.540;7.186;2022-08-01T15:49:22;29.40;95.00
10846;DHT22;5476;51.540;7.186;2022-08-01T15:51:49;29.40;96.90
10846;DHT22;5476;51.540;7.186;2022-08-01T15:54:17;29.40;97.30
10846;DHT22;5476;51.540;7.186;2022-08-01T15:56:44;29.50;96.80
10846;DHT22;5476;51.540;7.186;2022-08-01T15:59:13;29.50;96.80
10846;DHT22;5476;51.540;7.186;2022-08-01T16:01:40;29.50;98.90